This is the latest recevied weather packets stored in our database for station/object KY0TEQ-13. If no packets are shown the sender has not sent any weather packets the latest 10 day(s).
| Time | Temp. | Humidity | Pressure | Rain* | Wind** | Luminosity | Snow |
|---|---|---|---|---|---|---|---|
| 1777632678 | 1.67° C | 53% | 1301 hPa | 0 mm | - | 0 W/m² | - |
| 1777632375 | 2.22° C | 49% | 1301.1 hPa | 0 mm | - | 0 W/m² | - |
| 1777632072 | 1.67° C | 51% | 1301.1 hPa | 0 mm | - | 0 W/m² | - |
| 1777631770 | 0.56° C | 55% | 1301 hPa | 0 mm | - | 0 W/m² | - |
| 1777631467 | 1.67° C | 51% | 1301 hPa | 0 mm | - | 0 W/m² | - |
| 1777631163 | 2.78° C | 49% | 1300.7 hPa | 0 mm | - | 0 W/m² | - |
| 1777630861 | 3.33° C | 47% | 1301.1 hPa | 0 mm | - | 0 W/m² | - |
| 1777630557 | 2.78° C | 48% | 1301 hPa | 0 mm | - | 0 W/m² | - |
| 1777630254 | 2.78° C | 48% | 1301 hPa | 0 mm | - | 0 W/m² | - |
| 1777629952 | 2.78° C | 48% | 1300.9 hPa | 0 mm | - | 0 W/m² | - |
| 1777629649 | 2.78° C | 48% | 1300.9 hPa | 0 mm | - | 0 W/m² | - |
| 1777629345 | 3.33° C | 47% | 1301 hPa | 0 mm | - | 0 W/m² | - |
| 1777629041 | 3.33° C | 47% | 1300.9 hPa | 0 mm | - | 0 W/m² | - |
| 1777628738 | 2.78° C | 47% | 1300.9 hPa | 0 mm | - | 0 W/m² | - |
| 1777628434 | 2.78° C | 48% | 1300.7 hPa | 0 mm | - | 0 W/m² | - |
| 1777628131 | 2.78° C | 48% | 1300.6 hPa | 0 mm | - | 0 W/m² | - |
| 1777627827 | 2.78° C | 49% | 1300.9 hPa | 0 mm | - | 0 W/m² | - |
| 1777627525 | 2.22° C | 49% | 1300.9 hPa | 0 mm | - | 0 W/m² | - |
| 1777627225 | 1.67° C | 50% | 1300.7 hPa | 0 mm | - | 0 W/m² | - |
| 1777626923 | 1.11° C | 52% | 1300.7 hPa | 0 mm | - | 0 W/m² | - |
| 1777626620 | 0° C | 55% | 1300.6 hPa | 0 mm | - | 0 W/m² | - |
| 1777626315 | 0° C | 55% | 1300.9 hPa | 0 mm | - | 0 W/m² | - |
| 1777626014 | 1.11° C | 53% | 1300.7 hPa | 0 mm | - | 0 W/m² | - |
| 1777625713 | 2.22° C | 49% | 1300.7 hPa | 0 mm | - | 0 W/m² | - |
| 1777625409 | 2.78° C | 46% | 1300.9 hPa | 0 mm | - | 0 W/m² | - |
* Rain latest hour (hover to see other rain measurements)
** Current wind speed in m/s (hover to see current wind gust speed)